Time,TemperatureF,DewpointF,PressureIn,WindDirection,WindDirectionDegrees,WindSpeedMPH,WindSpeedGustMPH,Humidity,HourlyPrecipIn,Conditions,Clouds,dailyrainin,SoftwareType,DateUTC
2013-06-26 00:01:00,68.4,64.1,29.88,SW,219,0.0,1.0,86,0.00,,---,0.00,VWS V14.01,2013-06-26 04:01:00,
2013-06-26 00:06:00,68.4,64.7,29.88,West,279,0.0,1.0,88,0.00,,---,0.00,VWS V14.01,2013-06-26 04:06:00,
2013-06-26 00:11:00,68.5,64.5,29.88,WSW,241,0.0,3.0,87,0.00,,---,0.00,VWS V14.01,2013-06-26 04:11:00,
2013-06-26 00:16:00,68.8,64.1,29.88,WNW,284,1.0,5.0,85,0.00,,---,0.00,VWS V14.01,2013-06-26 04:16:00,
2013-06-26 00:21:00,69.0,64.3,29.87,SSE,158,0.0,5.0,85,0.00,,---,0.00,VWS V14.01,2013-06-26 04:21:00,
2013-06-26 00:26:00,68.8,64.4,29.87,SSE,157,0.0,5.0,86,0.00,,---,0.00,VWS V14.01,2013-06-26 04:26:00,
2013-06-26 00:31:00,68.5,64.8,29.87,SE,136,0.0,0.0,88,0.00,,---,0.00,VWS V14.01,2013-06-26 04:31:00,
2013-06-26 00:36:00,68.4,64.4,29.87,SSW,200,0.0,2.0,87,0.00,,---,0.00,VWS V14.01,2013-06-26 04:36:00,
2013-06-26 00:41:00,68.6,64.2,29.87,WSW,248,0.0,4.0,86,0.00,,---,0.00,VWS V14.01,2013-06-26 04:41:00,
2013-06-26 00:46:00,68.9,64.2,29.88,WSW,245,3.0,5.0,85,0.00,,---,0.00,VWS V14.01,2013-06-26 04:46:00,
2013-06-26 00:51:00,69.2,64.2,29.87,West,274,3.0,9.0,84,0.00,,---,0.00,VWS V14.01,2013-06-26 04:51:00,
2013-06-26 00:56:00,69.3,63.9,29.88,NW,307,2.0,9.0,83,0.00,,---,0.00,VWS V14.01,2013-06-26 04:56:00,
2013-06-26 01:01:00,69.4,64.0,29.87,West,274,2.0,2.0,83,0.00,,---,0.00,VWS V14.01,2013-06-26 05:01:00,
2013-06-26 01:06:00,69.2,64.2,29.88,West,279,2.0,5.0,84,0.00,,---,0.00,VWS V14.01,2013-06-26 05:06:00,
2013-06-26 01:11:00,69.2,64.2,29.88,WNW,287,0.0,5.0,84,0.00,,---,0.00,VWS V14.01,2013-06-26 05:11:00,
2013-06-26 01:16:00,69.1,64.1,29.88,NW,311,0.0,5.0,84,0.00,,---,0.00,VWS V14.01,2013-06-26 05:16:00,
2013-06-26 01:21:00,69.2,64.2,29.88,WSW,239,0.0,5.0,84,0.00,,---,0.00,VWS V14.01,2013-06-26 05:21:00,
2013-06-26 01:26:00,69.2,64.2,29.88,SW,221,0.0,5.0,84,0.00,,---,0.00,VWS V14.01,2013-06-26 05:26:00,
2013-06-26 01:31:00,69.0,64.3,29.88,NNW,335,4.0,4.0,85,0.00,,---,0.00,VWS V14.01,2013-06-26 05:31:00,
2013-06-26 01:36:00,68.8,64.4,29.87,SE,127,0.0,4.0,86,0.00,,---,0.00,VWS V14.01,2013-06-26 05:36:00,
2013-06-26 01:41:00,68.6,64.6,29.87,SSW,213,0.0,4.0,87,0.00,,---,0.00,VWS V14.01,2013-06-26 05:41:00,
2013-06-26 01:46:00,68.4,64.7,29.87,SSE,160,0.0,4.0,88,0.00,,---,0.00,VWS V14.01,2013-06-26 05:46:00,
2013-06-26 01:51:00,68.5,63.8,29.87,West,275,1.0,6.0,85,0.00,,---,0.00,VWS V14.01,2013-06-26 05:51:00,
2013-06-26 01:56:00,69.0,64.0,29.87,WNW,294,2.0,6.0,84,0.00,,---,0.00,VWS V14.01,2013-06-26 05:56:00,
2013-06-26 02:01:00,69.3,64.3,29.87,SW,231,0.0,0.0,84,0.00,,---,0.00,VWS V14.01,2013-06-26 06:01:00,
2013-06-26 02:06:00,69.2,64.2,29.87,East,79,3.0,3.0,84,0.00,,---,0.00,VWS V14.01,2013-06-26 06:06:00,
2013-06-26 02:11:00,69.2,64.2,29.87,SSW,203,0.0,3.0,84,0.00,,---,0.00,VWS V14.01,2013-06-26 06:11:00,
2013-06-26 02:16:00,69.6,63.9,29.88,WNW,295,1.0,7.0,82,0.00,,---,0.00,VWS V14.01,2013-06-26 06:16:00,
2013-06-26 02:21:00,70.2,64.1,29.88,West,280,4.0,10.0,81,0.00,,---,0.00,VWS V14.01,2013-06-26 06:21:00,
2013-06-26 02:26:00,70.5,64.0,29.88,West,268,1.0,10.0,80,0.00,,---,0.00,VWS V14.01,2013-06-26 06:26:00,
2013-06-26 02:31:00,70.4,63.9,29.89,SW,231,2.0,6.0,80,0.00,,---,0.00,VWS V14.01,2013-06-26 06:31:00,
2013-06-26 02:36:00,70.3,63.8,29.88,WNW,284,3.0,7.0,80,0.00,,---,0.00,VWS V14.01,2013-06-26 06:36:00,
2013-06-26 02:41:00,70.3,63.8,29.88,SW,231,4.0,10.0,80,0.00,,---,0.00,VWS V14.01,2013-06-26 06:41:00,
2013-06-26 02:46:00,70.5,63.7,29.88,NW,306,5.0,10.0,79,0.00,,---,0.00,VWS V14.01,2013-06-26 06:46:00,
2013-06-26 02:51:00,70.4,63.6,29.87,NNW,335,5.0,10.0,79,0.00,,---,0.00,VWS V14.01,2013-06-26 06:51:00,
2013-06-26 02:56:00,70.3,63.8,29.87,NNW,330,2.0,10.0,80,0.00,,---,0.00,VWS V14.01,2013-06-26 06:56:00,
2013-06-26 03:01:00,70.2,64.1,29.87,NW,321,0.0,2.0,81,0.00,,---,0.00,VWS V14.01,2013-06-26 07:01:00,
2013-06-26 03:06:00,69.9,63.8,29.87,NW,311,3.0,6.0,81,0.00,,---,0.00,VWS V14.01,2013-06-26 07:06:00,
2013-06-26 03:11:00,70.0,63.9,29.88,WNW,282,5.0,8.0,81,0.00,,---,0.00,VWS V14.01,2013-06-26 07:11:00,
2013-06-26 03:16:00,70.0,63.9,29.87,West,259,2.0,9.0,81,0.00,,---,0.00,VWS V14.01,2013-06-26 07:16:00,
2013-06-26 03:21:00,69.7,64.3,29.87,SW,235,3.0,9.0,83,0.00,,---,0.00,VWS V14.01,2013-06-26 07:21:00,
2013-06-26 03:26:00,69.7,64.0,29.87,SW,231,6.0,9.0,82,0.00,,---,0.00,VWS V14.01,2013-06-26 07:26:00,
2013-06-26 03:31:00,69.4,64.0,29.86,ENE,77,0.0,2.0,83,0.00,,---,0.00,VWS V14.01,2013-06-26 07:31:00,
2013-06-26 03:36:00,69.4,63.7,29.86,WNW,294,0.0,5.0,82,0.00,,---,0.00,VWS V14.01,2013-06-26 07:36:00,
2013-06-26 03:41:00,69.4,64.0,29.86,WNW,282,0.0,5.0,83,0.00,,---,0.00,VWS V14.01,2013-06-26 07:41:00,
2013-06-26 03:46:00,69.1,63.7,29.86,WNW,288,6.0,6.0,83,0.00,,---,0.00,VWS V14.01,2013-06-26 07:46:00,
2013-06-26 03:51:00,69.1,64.1,29.86,SSW,197,0.0,6.0,84,0.01,,---,0.01,VWS V14.01,2013-06-26 07:51:00,
2013-06-26 03:56:00,68.7,64.0,29.86,SSW,211,0.0,6.0,85,0.01,,---,0.01,VWS V14.01,2013-06-26 07:56:00,
2013-06-26 04:01:00,68.4,63.7,29.86,West,270,1.0,2.0,85,0.01,,---,0.01,VWS V14.01,2013-06-26 08:01:00,
2013-06-26 04:06:00,68.5,63.8,29.86,SE,127,0.0,4.0,85,0.01,,---,0.01,VWS V14.01,2013-06-26 08:06:00,
2013-06-26 04:11:00,68.4,64.1,29.86,West,263,0.0,4.0,86,0.01,,---,0.01,VWS V14.01,2013-06-26 08:11:00,
2013-06-26 04:16:00,68.3,64.0,29.87,WNW,284,0.0,4.0,86,0.01,,---,0.01,VWS V14.01,2013-06-26 08:16:00,
2013-06-26 04:21:00,68.3,63.6,29.86,West,273,3.0,5.0,85,0.01,,---,0.01,VWS V14.01,2013-06-26 08:21:00,
2013-06-26 04:26:00,68.2,63.5,29.86,NW,307,3.0,6.0,85,0.02,,---,0.02,VWS V14.01,2013-06-26 08:26:00,
2013-06-26 04:31:00,68.2,63.5,29.86,West,281,2.0,4.0,85,0.02,,---,0.02,VWS V14.01,2013-06-26 08:31:00,
2013-06-26 04:36:00,68.0,63.7,29.86,West,264,0.0,4.0,86,0.02,,---,0.02,VWS V14.01,2013-06-26 08:36:00,
2013-06-26 04:41:00,68.0,63.7,29.86,WSW,252,1.0,4.0,86,0.02,,---,0.02,VWS V14.01,2013-06-26 08:41:00,
2013-06-26 04:46:00,68.0,63.3,29.86,West,269,2.0,4.0,85,0.02,,---,0.02,VWS V14.01,2013-06-26 08:46:00,
2013-06-26 04:51:00,68.0,63.3,29.86,WSW,246,3.0,8.0,85,0.02,,---,0.02,VWS V14.01,2013-06-26 08:51:00,
2013-06-26 04:56:00,68.3,63.3,29.86,WNW,287,2.0,8.0,84,0.02,,---,0.02,VWS V14.01,2013-06-26 08:56:00,
2013-06-26 05:01:00,68.4,63.4,29.86,WNW,290,3.0,4.0,84,0.01,,---,0.02,VWS V14.01,2013-06-26 09:01:00,
2013-06-26 05:06:00,68.7,63.0,29.86,West,278,6.0,8.0,82,0.01,,---,0.02,VWS V14.01,2013-06-26 09:06:00,
2013-06-26 05:11:00,68.9,63.2,29.86,West,266,5.0,8.0,82,0.01,,---,0.02,VWS V14.01,2013-06-26 09:11:00,
2013-06-26 05:16:00,69.0,63.3,29.86,West,281,0.0,9.0,82,0.01,,---,0.02,VWS V14.01,2013-06-26 09:16:00,
2013-06-26 05:21:00,68.7,63.3,29.86,SW,221,1.0,9.0,83,0.01,,---,0.02,VWS V14.01,2013-06-26 09:21:00,
2013-06-26 05:26:00,68.3,63.3,29.86,NW,326,1.0,9.0,84,0.01,,---,0.02,VWS V14.01,2013-06-26 09:26:00,
2013-06-26 05:31:00,68.1,63.4,29.87,SW,230,0.0,1.0,85,0.00,,---,0.02,VWS V14.01,2013-06-26 09:31:00,
2013-06-26 05:36:00,68.1,63.4,29.87,NNW,339,0.0,1.0,85,0.00,,---,0.02,VWS V14.01,2013-06-26 09:36:00,
2013-06-26 05:41:00,67.9,63.2,29.87,NNW,339,0.0,1.0,85,0.00,,---,0.02,VWS V14.01,2013-06-26 09:41:00,
2013-06-26 05:46:00,67.7,63.4,29.86,NNW,338,0.0,1.0,86,0.00,,---,0.02,VWS V14.01,2013-06-26 09:46:00,
2013-06-26 05:51:00,67.6,63.3,29.87,WSW,250,0.0,1.0,86,0.00,,---,0.02,VWS V14.01,2013-06-26 09:51:00,
2013-06-26 05:56:00,67.5,63.5,29.87,SW,235,0.0,1.0,87,0.00,,---,0.02,VWS V14.01,2013-06-26 09:56:00,
2013-06-26 06:01:00,67.4,63.7,29.87,WSW,238,0.0,0.0,88,0.00,,---,0.02,VWS V14.01,2013-06-26 10:01:00,
2013-06-26 06:06:00,67.4,63.7,29.87,WSW,255,1.0,1.0,88,0.00,,---,0.02,VWS V14.01,2013-06-26 10:06:00,
2013-06-26 06:11:00,67.6,63.3,29.87,WSW,251,1.0,2.0,86,0.00,,---,0.02,VWS V14.01,2013-06-26 10:11:00,
2013-06-26 06:16:00,68.1,63.4,29.87,WSW,255,1.0,4.0,85,0.00,,---,0.02,VWS V14.01,2013-06-26 10:16:00,
2013-06-26 06:21:00,68.5,63.1,29.87,WNW,285,2.0,8.0,83,0.00,,---,0.02,VWS V14.01,2013-06-26 10:21:00,
2013-06-26 06:26:00,68.8,63.4,29.87,NNW,327,1.0,8.0,83,0.00,,---,0.02,VWS V14.01,2013-06-26 10:26:00,
2013-06-26 06:31:00,68.9,63.2,29.87,NW,308,2.0,6.0,82,0.00,,---,0.02,VWS V14.01,2013-06-26 10:31:00,
2013-06-26 06:36:00,68.8,63.4,29.86,West,269,0.0,6.0,83,0.00,,---,0.02,VWS V14.01,2013-06-26 10:36:00,
2013-06-26 06:41:00,68.8,63.4,29.86,NW,314,2.0,6.0,83,0.00,,---,0.02,VWS V14.01,2013-06-26 10:41:00,
2013-06-26 06:46:00,68.8,63.4,29.86,NW,326,1.0,6.0,83,0.00,,---,0.02,VWS V14.01,2013-06-26 10:46:00,
2013-06-26 06:51:00,68.9,63.5,29.87,NW,314,1.0,6.0,83,0.00,,---,0.02,VWS V14.01,2013-06-26 10:51:00,
2013-06-26 06:56:00,69.2,63.8,29.87,WNW,286,1.0,6.0,83,0.00,,---,0.02,VWS V14.01,2013-06-26 10:56:00,
2013-06-26 07:01:00,69.3,63.6,29.87,West,264,3.0,9.0,82,0.00,,---,0.02,VWS V14.01,2013-06-26 11:01:00,
2013-06-26 07:06:00,69.6,63.5,29.87,West,271,1.0,9.0,81,0.00,,---,0.02,VWS V14.01,2013-06-26 11:06:00,
2013-06-26 07:11:00,69.9,63.8,29.87,NNW,330,0.0,9.0,81,0.00,,---,0.02,VWS V14.01,2013-06-26 11:11:00,
2013-06-26 07:16:00,70.1,64.0,29.86,WSW,255,0.0,9.0,81,0.00,,---,0.02,VWS V14.01,2013-06-26 11:16:00,
2013-06-26 07:21:00,70.7,64.2,29.86,WNW,296,1.0,9.0,80,0.00,,---,0.02,VWS V14.01,2013-06-26 11:21:00,
2013-06-26 07:26:00,70.6,64.1,29.87,WNW,287,0.0,9.0,80,0.00,,---,0.02,VWS V14.01,2013-06-26 11:26:00,
2013-06-26 07:31:00,71.0,64.5,29.87,West,269,2.0,3.0,80,0.00,,---,0.02,VWS V14.01,2013-06-26 11:31:00,
2013-06-26 07:36:00,71.4,64.2,29.87,WNW,295,3.0,6.0,78,0.00,,---,0.02,VWS V14.01,2013-06-26 11:36:00,
2013-06-26 07:41:00,71.9,65.0,29.87,NW,314,1.0,6.0,79,0.00,,---,0.02,VWS V14.01,2013-06-26 11:41:00,
2013-06-26 07:46:00,71.8,64.2,29.86,NNE,20,1.0,9.0,77,0.00,,---,0.02,VWS V14.01,2013-06-26 11:46:00,
2013-06-26 07:51:00,72.0,64.8,29.86,WNW,284,1.0,9.0,78,0.00,,---,0.02,VWS V14.01,2013-06-26 11:51:00,
2013-06-26 07:56:00,72.7,65.1,29.87,WNW,299,5.0,9.0,77,0.00,,---,0.02,VWS V14.01,2013-06-26 11:56:00,
2013-06-26 08:01:00,73.1,65.5,29.87,WNW,286,11.0,12.0,77,0.00,,---,0.02,VWS V14.01,2013-06-26 12:01:00,
2013-06-26 08:05:00,73.1,65.1,29.87,West,260,3.0,12.0,76,0.00,,---,0.02,VWS V14.01,2013-06-26 12:05:00,
2013-06-26 08:10:00,73.1,65.1,29.87,West,273,2.0,12.0,76,0.00,,---,0.02,VWS V14.01,2013-06-26 12:10:00,
2013-06-26 08:15:00,73.2,65.6,29.87,West,268,3.0,12.0,77,0.00,,---,0.02,VWS V14.01,2013-06-26 12:15:00,
2013-06-26 08:16:00,73.2,65.6,29.87,West,269,5.0,12.0,77,0.00,,---,0.02,VWS V14.01,2013-06-26 12:16:00,
2013-06-26 08:21:00,73.2,65.2,29.87,WNW,288,1.0,12.0,76,0.00,,---,0.02,VWS V14.01,2013-06-26 12:21:00,
2013-06-26 08:26:00,74.0,66.0,29.87,West,276,1.0,12.0,76,0.00,,---,0.02,VWS V14.01,2013-06-26 12:26:00,
2013-06-26 08:31:00,73.9,65.1,29.87,WNW,291,1.0,6.0,74,0.00,,---,0.02,VWS V14.01,2013-06-26 12:31:00,
2013-06-26 08:36:00,73.6,64.8,29.87,WNW,297,5.0,8.0,74,0.00,,---,0.02,VWS V14.01,2013-06-26 12:36:00,
2013-06-26 08:41:00,73.9,65.5,29.87,WNW,302,5.0,8.0,75,0.00,,---,0.02,VWS V14.01,2013-06-26 12:41:00,
2013-06-26 08:46:00,74.2,65.8,29.86,SW,228,7.0,8.0,75,0.00,,---,0.02,VWS V14.01,2013-06-26 12:46:00,
2013-06-26 08:51:00,74.3,65.5,29.86,WNW,290,2.0,8.0,74,0.00,,---,0.02,VWS V14.01,2013-06-26 12:51:00,
2013-06-26 08:56:00,74.3,65.9,29.85,WNW,292,5.0,8.0,75,0.00,,---,0.02,VWS V14.01,2013-06-26 12:56:00,
2013-06-26 09:01:00,74.4,64.8,29.85,WNW,288,0.0,3.0,72,0.00,,---,0.02,VWS V14.01,2013-06-26 13:01:00,
2013-06-26 09:06:00,75.4,66.2,29.85,WNW,297,0.0,3.0,73,0.00,,---,0.02,VWS V14.01,2013-06-26 13:06:00,
2013-06-26 09:11:00,75.5,65.8,29.85,ESE,117,0.0,3.0,72,0.00,,---,0.02,VWS V14.01,2013-06-26 13:11:00,
2013-06-26 09:16:00,75.6,65.5,29.85,NE,54,1.0,3.0,71,0.00,,---,0.02,VWS V14.01,2013-06-26 13:16:00,
2013-06-26 09:21:00,75.7,66.0,29.85,South,179,0.0,3.0,72,0.00,,---,0.02,VWS V14.01,2013-06-26 13:21:00,
2013-06-26 09:26:00,76.1,65.6,29.84,NW,318,0.0,3.0,70,0.00,,---,0.02,VWS V14.01,2013-06-26 13:26:00,
2013-06-26 09:31:00,76.0,65.1,29.84,West,280,0.0,1.0,69,0.00,,---,0.02,VWS V14.01,2013-06-26 13:31:00,
2013-06-26 09:36:00,75.8,65.3,29.84,WSW,255,0.0,3.0,70,0.00,,---,0.02,VWS V14.01,2013-06-26 13:36:00,
2013-06-26 09:41:00,75.5,65.0,29.84,WNW,303,0.0,3.0,70,0.00,,---,0.02,VWS V14.01,2013-06-26 13:41:00,
2013-06-26 09:46:00,74.8,64.8,29.84,WNW,301,0.0,3.0,71,0.00,,---,0.02,VWS V14.01,2013-06-26 13:46:00,
2013-06-26 09:51:00,75.0,65.4,29.84,SSW,203,0.0,3.0,72,0.00,,---,0.02,VWS V14.01,2013-06-26 13:51:00,
2013-06-26 09:56:00,75.0,65.8,29.85,WSW,245,3.0,3.0,73,0.00,,---,0.02,VWS V14.01,2013-06-26 13:56:00,
2013-06-26 10:00:00,75.0,66.2,29.85,West,262,2.0,3.0,74,0.00,,---,0.02,VWS V14.01,2013-06-26 14:00:00,
2013-06-26 10:05:00,74.6,65.4,29.85,WNW,283,2.0,3.0,73,0.00,,---,0.02,VWS V14.01,2013-06-26 14:05:00,
2013-06-26 10:10:00,74.3,65.9,29.85,SW,230,0.0,3.0,75,0.00,,---,0.02,VWS V14.01,2013-06-26 14:10:00,
2013-06-26 10:15:00,74.6,65.8,29.85,WSW,245,0.0,3.0,74,0.00,,---,0.02,VWS V14.01,2013-06-26 14:15:00,
2013-06-26 10:20:00,74.7,65.9,29.86,WSW,246,1.0,3.0,74,0.00,,---,0.02,VWS V14.01,2013-06-26 14:20:00,
2013-06-26 10:25:00,74.7,65.9,29.86,SW,233,2.0,5.0,74,0.00,,---,0.02,VWS V14.01,2013-06-26 14:25:00,
2013-06-26 10:30:00,74.6,65.8,29.86,NW,309,1.0,2.0,74,0.00,,---,0.02,VWS V14.01,2013-06-26 14:30:00,
2013-06-26 10:35:00,74.5,65.7,29.86,WNW,282,1.0,4.0,74,0.00,,---,0.02,VWS V14.01,2013-06-26 14:35:00,
2013-06-26 10:40:00,74.7,65.9,29.87,West,259,0.0,4.0,74,0.00,,---,0.02,VWS V14.01,2013-06-26 14:40:00,
2013-06-26 10:45:00,74.4,65.6,29.87,NW,319,2.0,4.0,74,0.00,,---,0.02,VWS V14.01,2013-06-26 14:45:00,
2013-06-26 10:50:00,74.3,65.5,29.87,West,274,0.0,4.0,74,0.00,,---,0.02,VWS V14.01,2013-06-26 14:50:00,
2013-06-26 10:55:00,74.4,66.0,29.87,NNW,342,2.0,4.0,75,0.00,,---,0.02,VWS V14.01,2013-06-26 14:55:00,
2013-06-26 11:00:00,74.6,66.2,29.87,NNW,335,0.0,0.0,75,0.00,,---,0.02,VWS V14.01,2013-06-26 15:00:00,
2013-06-26 11:05:00,75.0,66.2,29.87,West,272,0.0,1.0,74,0.00,,---,0.02,VWS V14.01,2013-06-26 15:05:00,
2013-06-26 11:10:00,75.5,65.8,29.88,SSW,211,2.0,3.0,72,0.00,,---,0.02,VWS V14.01,2013-06-26 15:10:00,
2013-06-26 11:15:00,75.4,65.8,29.88,SW,235,1.0,3.0,72,0.00,,---,0.02,VWS V14.01,2013-06-26 15:15:00,
2013-06-26 11:20:00,75.3,65.7,29.88,South,177,1.0,4.0,72,0.00,,---,0.02,VWS V14.01,2013-06-26 15:20:00,
2013-06-26 11:25:00,75.1,65.5,29.88,SW,227,2.0,4.0,72,0.00,,---,0.02,VWS V14.01,2013-06-26 15:25:00,
2013-06-26 11:30:00,75.3,66.1,29.88,NW,312,2.0,2.0,73,0.00,,---,0.02,VWS V14.01,2013-06-26 15:30:00,
2013-06-26 11:35:00,75.0,65.8,29.88,WNW,293,2.0,4.0,73,0.00,,---,0.02,VWS V14.01,2013-06-26 15:35:00,
2013-06-26 11:40:00,75.2,66.3,29.88,NW,304,1.0,4.0,74,0.00,,---,0.02,VWS V14.01,2013-06-26 15:40:00,
2013-06-26 11:45:00,75.2,66.0,29.88,West,264,0.0,4.0,73,0.00,,---,0.02,VWS V14.01,2013-06-26 15:45:00,
2013-06-26 11:50:00,75.4,65.8,29.87,WSW,257,2.0,4.0,72,0.00,,---,0.02,VWS V14.01,2013-06-26 15:50:00,
2013-06-26 11:55:00,75.9,66.2,29.87,West,270,1.0,4.0,72,0.00,,---,0.02,VWS V14.01,2013-06-26 15:55:00,
2013-06-26 12:00:00,76.2,66.1,29.88,West,259,1.0,4.0,71,0.00,,---,0.02,VWS V14.01,2013-06-26 16:00:00,
2013-06-26 12:05:00,76.4,65.9,29.88,WNW,289,4.0,4.0,70,0.00,,---,0.02,VWS V14.01,2013-06-26 16:05:00,
2013-06-26 12:10:00,76.1,66.4,29.88,North,352,3.0,4.0,72,0.00,,---,0.02,VWS V14.01,2013-06-26 16:10:00,
2013-06-26 12:15:00,76.4,66.3,29.88,West,277,3.0,4.0,71,0.00,,---,0.02,VWS V14.01,2013-06-26 16:15:00,
2013-06-26 12:20:00,76.3,65.8,29.87,WNW,288,1.0,5.0,70,0.00,,---,0.02,VWS V14.01,2013-06-26 16:20:00,
2013-06-26 12:25:00,76.6,66.5,29.87,WNW,289,0.0,5.0,71,0.00,,---,0.02,VWS V14.01,2013-06-26 16:25:00,
2013-06-26 12:30:00,76.7,65.8,29.87,NNW,330,2.0,2.0,69,0.00,,---,0.02,VWS V14.01,2013-06-26 16:30:00,
2013-06-26 12:35:00,77.1,67.4,29.87,NNW,330,1.0,3.0,72,0.00,,---,0.02,VWS V14.01,2013-06-26 16:35:00,
2013-06-26 12:40:00,77.1,66.6,29.88,NW,318,1.0,3.0,70,0.00,,---,0.02,VWS V14.01,2013-06-26 16:40:00,
2013-06-26 12:45:00,77.8,67.2,29.88,West,265,1.0,3.0,70,0.00,,---,0.02,VWS V14.01,2013-06-26 16:45:00,
2013-06-26 12:50:00,77.7,66.3,29.88,West,269,0.0,3.0,68,0.00,,---,0.02,VWS V14.01,2013-06-26 16:50:00,
2013-06-26 12:55:00,77.9,66.9,29.88,West,276,2.0,3.0,69,0.00,,---,0.02,VWS V14.01,2013-06-26 16:55:00,
2013-06-26 13:00:00,78.2,66.4,29.87,SSE,158,0.0,2.0,67,0.00,,---,0.02,VWS V14.01,2013-06-26 17:00:00,
2013-06-26 13:05:00,78.7,66.8,29.88,WSW,243,2.0,4.0,67,0.00,,---,0.02,VWS V14.01,2013-06-26 17:05:00,
2013-06-26 13:10:00,78.9,65.7,29.88,West,262,4.0,8.0,64,0.00,,---,0.02,VWS V14.01,2013-06-26 17:10:00,
2013-06-26 13:15:00,78.9,66.2,29.87,WSW,252,0.0,8.0,65,0.00,,---,0.02,VWS V14.01,2013-06-26 17:15:00,
2013-06-26 13:20:00,79.5,67.2,29.88,WNW,288,1.0,8.0,66,0.00,,---,0.02,VWS V14.01,2013-06-26 17:20:00,
2013-06-26 13:25:00,79.5,67.2,29.88,SW,225,2.0,8.0,66,0.00,,---,0.02,VWS V14.01,2013-06-26 17:25:00,
2013-06-26 13:30:00,79.2,66.9,29.88,ESE,107,0.0,5.0,66,0.00,,---,0.02,VWS V14.01,2013-06-26 17:30:00,
2013-06-26 13:35:00,79.3,67.0,29.88,WSW,240,4.0,7.0,66,0.00,,---,0.02,VWS V14.01,2013-06-26 17:35:00,
2013-06-26 13:40:00,78.8,66.1,29.88,SW,229,4.0,9.0,65,0.00,,---,0.02,VWS V14.01,2013-06-26 17:40:00,
2013-06-26 13:45:00,79.1,66.3,29.88,WSW,245,7.0,9.0,65,0.00,,---,0.02,VWS V14.01,2013-06-26 17:45:00,
2013-06-26 13:50:00,79.6,68.1,29.88,WSW,248,2.0,9.0,68,0.00,,---,0.02,VWS V14.01,2013-06-26 17:50:00,
2013-06-26 13:55:00,79.5,67.2,29.87,WSW,258,1.0,9.0,66,0.00,,---,0.02,VWS V14.01,2013-06-26 17:55:00,
2013-06-26 14:00:00,79.2,66.0,29.87,West,264,3.0,8.0,64,0.00,,---,0.02,VWS V14.01,2013-06-26 18:00:00,
2013-06-26 14:05:00,78.9,66.6,29.87,WNW,288,3.0,8.0,66,0.00,,---,0.02,VWS V14.01,2013-06-26 18:05:00,
2013-06-26 14:10:00,78.2,65.9,29.87,NNW,340,2.0,8.0,66,0.00,,---,0.02,VWS V14.01,2013-06-26 18:10:00,
2013-06-26 14:15:00,77.8,65.5,29.87,WNW,297,2.0,8.0,66,0.00,,---,0.02,VWS V14.01,2013-06-26 18:15:00,
2013-06-26 14:20:00,77.6,65.8,29.87,WSW,249,1.0,8.0,67,0.00,,---,0.02,VWS V14.01,2013-06-26 18:20:00,
2013-06-26 14:25:00,77.3,65.9,29.86,WNW,292,2.0,8.0,68,0.00,,---,0.02,VWS V14.01,2013-06-26 18:25:00,
2013-06-26 14:30:00,77.2,65.8,29.86,West,267,0.0,2.0,68,0.00,,---,0.02,VWS V14.01,2013-06-26 18:30:00,
2013-06-26 14:35:00,77.0,66.5,29.86,SW,233,0.0,3.0,70,0.00,,---,0.02,VWS V14.01,2013-06-26 18:35:00,
2013-06-26 14:40:00,76.6,66.1,29.87,West,268,3.0,4.0,70,0.00,,---,0.02,VWS V14.01,2013-06-26 18:40:00,
2013-06-26 14:45:00,76.2,66.5,29.87,NW,322,1.0,4.0,72,0.00,,---,0.02,VWS V14.01,2013-06-26 18:45:00,
2013-06-26 14:50:00,76.4,67.1,29.86,WNW,283,1.0,4.0,73,0.00,,---,0.02,VWS V14.01,2013-06-26 18:50:00,
2013-06-26 14:55:00,76.9,66.8,29.86,WNW,290,0.0,4.0,71,0.00,,---,0.02,VWS V14.01,2013-06-26 18:55:00,
2013-06-26 15:00:00,77.2,66.7,29.86,WNW,283,0.0,0.0,70,0.00,,---,0.02,VWS V14.01,2013-06-26 19:00:00,
2013-06-26 15:05:00,77.9,67.8,29.86,West,276,0.0,2.0,71,0.00,,---,0.02,VWS V14.01,2013-06-26 19:05:00,
2013-06-26 15:10:00,78.6,67.6,29.86,SW,233,1.0,3.0,69,0.00,,---,0.02,VWS V14.01,2013-06-26 19:10:00,
2013-06-26 15:15:00,79.1,67.6,29.86,NW,319,1.0,4.0,68,0.00,,---,0.02,VWS V14.01,2013-06-26 19:15:00,
2013-06-26 15:20:00,78.9,66.2,29.86,WNW,295,4.0,7.0,65,0.00,,---,0.02,VWS V14.01,2013-06-26 19:20:00,
2013-06-26 15:25:00,78.6,65.9,29.85,West,269,2.0,7.0,65,0.00,,---,0.02,VWS V14.01,2013-06-26 19:25:00,
2013-06-26 15:30:00,78.8,66.1,29.85,SW,233,1.0,1.0,65,0.00,,---,0.02,VWS V14.01,2013-06-26 19:30:00,
2013-06-26 15:35:00,79.3,66.1,29.85,WNW,300,0.0,4.0,64,0.00,,---,0.02,VWS V14.01,2013-06-26 19:35:00,
2013-06-26 15:40:00,79.8,66.6,29.84,West,259,3.0,4.0,64,0.00,,---,0.02,VWS V14.01,2013-06-26 19:40:00,
2013-06-26 15:45:00,80.0,66.7,29.84,WSW,255,1.0,4.0,64,0.00,,---,0.02,VWS V14.01,2013-06-26 19:45:00,
2013-06-26 15:50:00,80.3,66.6,29.84,WSW,252,0.0,4.0,63,0.00,,---,0.02,VWS V14.01,2013-06-26 19:50:00,
2013-06-26 15:55:00,80.8,67.0,29.84,West,277,0.0,4.0,63,0.00,,---,0.02,VWS V14.01,2013-06-26 19:55:00,
2013-06-26 16:00:00,80.3,67.5,29.84,WSW,238,1.0,1.0,65,0.00,,---,0.02,VWS V14.01,2013-06-26 20:00:00,
2013-06-26 16:05:00,80.1,66.8,29.84,WSW,245,1.0,5.0,64,0.00,,---,0.02,VWS V14.01,2013-06-26 20:05:00,
2013-06-26 16:10:00,80.2,66.9,29.84,SW,231,2.0,5.0,64,0.00,,---,0.02,VWS V14.01,2013-06-26 20:10:00,
2013-06-26 16:15:00,80.9,67.6,29.83,SW,236,1.0,5.0,64,0.00,,---,0.02,VWS V14.01,2013-06-26 20:15:00,
2013-06-26 16:20:00,80.7,66.9,29.84,WSW,251,5.0,6.0,63,0.00,,---,0.02,VWS V14.01,2013-06-26 20:20:00,
2013-06-26 16:25:00,80.8,66.6,29.84,NW,304,2.0,6.0,62,0.00,,---,0.02,VWS V14.01,2013-06-26 20:25:00,
2013-06-26 16:30:00,80.7,66.9,29.84,WSW,257,4.0,4.0,63,0.00,,---,0.02,VWS V14.01,2013-06-26 20:30:00,
2013-06-26 16:35:00,80.4,66.7,29.84,SW,231,2.0,6.0,63,0.00,,---,0.02,VWS V14.01,2013-06-26 20:35:00,
2013-06-26 16:40:00,80.3,67.0,29.84,West,259,0.0,6.0,64,0.00,,---,0.02,VWS V14.01,2013-06-26 20:40:00,
2013-06-26 16:45:00,80.4,67.1,29.83,WNW,285,2.0,6.0,64,0.00,,---,0.02,VWS V14.01,2013-06-26 20:45:00,
2013-06-26 16:50:00,80.6,66.8,29.83,West,278,1.0,6.0,63,0.00,,---,0.02,VWS V14.01,2013-06-26 20:50:00,
2013-06-26 16:55:00,80.9,67.1,29.83,SW,216,3.0,6.0,63,0.00,,---,0.02,VWS V14.01,2013-06-26 20:55:00,
2013-06-26 17:00:00,80.1,65.9,29.83,WNW,283,0.0,2.0,62,0.00,,---,0.02,VWS V14.01,2013-06-26 21:00:00,
2013-06-26 17:05:00,79.8,66.1,29.83,NNW,340,0.0,2.0,63,0.00,,---,0.02,VWS V14.01,2013-06-26 21:05:00,
2013-06-26 17:10:00,80.1,66.8,29.83,NNE,16,1.0,2.0,64,0.00,,---,0.02,VWS V14.01,2013-06-26 21:10:00,
2013-06-26 17:15:00,80.2,66.9,29.83,NNW,335,1.0,2.0,64,0.00,,---,0.02,VWS V14.01,2013-06-26 21:15:00,
2013-06-26 17:20:00,79.9,67.1,29.82,NE,53,1.0,2.0,65,0.00,,---,0.02,VWS V14.01,2013-06-26 21:20:00,
2013-06-26 17:25:00,79.8,67.0,29.82,ENE,72,0.0,2.0,65,0.00,,---,0.02,VWS V14.01,2013-06-26 21:25:00,
2013-06-26 17:30:00,79.9,66.7,29.82,West,264,1.0,2.0,64,0.00,,---,0.02,VWS V14.01,2013-06-26 21:30:00,
2013-06-26 17:35:00,80.2,67.4,29.82,North,349,1.0,2.0,65,0.00,,---,0.02,VWS V14.01,2013-06-26 21:35:00,
2013-06-26 17:40:00,81.4,67.6,29.82,NNW,329,1.0,3.0,63,0.00,,---,0.02,VWS V14.01,2013-06-26 21:40:00,
2013-06-26 17:45:00,82.5,66.7,29.82,West,266,3.0,4.0,59,0.00,,---,0.02,VWS V14.01,2013-06-26 21:45:00,
2013-06-26 17:50:00,82.3,66.6,29.82,SW,217,3.0,7.0,59,0.00,,---,0.02,VWS V14.01,2013-06-26 21:50:00,
2013-06-26 17:55:00,81.7,66.9,29.82,West,259,1.0,7.0,61,0.00,,---,0.02,VWS V14.01,2013-06-26 21:55:00,
2013-06-26 18:00:00,81.9,66.7,29.82,West,271,2.0,4.0,60,0.00,,---,0.02,VWS V14.01,2013-06-26 22:00:00,
2013-06-26 18:05:00,81.3,67.5,29.82,NNW,335,1.0,4.0,63,0.00,,---,0.02,VWS V14.01,2013-06-26 22:05:00,
2013-06-26 18:10:00,81.6,66.9,29.82,NNE,22,0.0,4.0,61,0.00,,---,0.02,VWS V14.01,2013-06-26 22:10:00,
2013-06-26 18:15:00,82.3,66.6,29.82,WSW,245,1.0,4.0,59,0.00,,---,0.02,VWS V14.01,2013-06-26 22:15:00,
2013-06-26 18:20:00,82.6,67.3,29.82,NW,318,0.0,4.0,60,0.00,,---,0.02,VWS V14.01,2013-06-26 22:20:00,
2013-06-26 18:25:00,82.5,66.2,29.82,WNW,300,1.0,4.0,58,0.00,,---,0.02,VWS V14.01,2013-06-26 22:25:00,
2013-06-26 18:30:00,82.3,67.0,29.82,NW,319,1.0,1.0,60,0.00,,---,0.02,VWS V14.01,2013-06-26 22:30:00,
2013-06-26 18:35:00,81.9,66.7,29.82,NW,304,0.0,3.0,60,0.00,,---,0.02,VWS V14.01,2013-06-26 22:35:00,
2013-06-26 18:40:00,81.4,66.7,29.82,WNW,295,1.0,4.0,61,0.00,,---,0.02,VWS V14.01,2013-06-26 22:40:00,
2013-06-26 18:45:00,81.3,67.1,29.81,WNW,293,4.0,4.0,62,0.00,,---,0.02,VWS V14.01,2013-06-26 22:45:00,
2013-06-26 18:50:00,81.1,66.4,29.81,West,267,0.0,4.0,61,0.00,,---,0.02,VWS V14.01,2013-06-26 22:50:00,
2013-06-26 18:55:00,80.8,67.0,29.81,WNW,300,0.0,4.0,63,0.00,,---,0.02,VWS V14.01,2013-06-26 22:55:00,
2013-06-26 19:00:00,80.8,67.5,29.81,WSW,243,0.0,1.0,64,0.00,,---,0.02,VWS V14.01,2013-06-26 23:00:00,
2013-06-26 19:05:00,81.3,67.5,29.81,West,263,0.0,2.0,63,0.00,,---,0.02,VWS V14.01,2013-06-26 23:05:00,
2013-06-26 19:10:00,81.6,67.3,29.81,SW,230,0.0,2.0,62,0.00,,---,0.02,VWS V14.01,2013-06-26 23:10:00,
2013-06-26 19:15:00,81.7,66.9,29.81,WNW,285,1.0,2.0,61,0.00,,---,0.02,VWS V14.01,2013-06-26 23:15:00,
2013-06-26 19:20:00,81.6,66.9,29.81,SSE,168,0.0,3.0,61,0.00,,---,0.02,VWS V14.01,2013-06-26 23:20:00,
2013-06-26 19:25:00,81.8,67.1,29.81,SW,219,0.0,3.0,61,0.00,,---,0.02,VWS V14.01,2013-06-26 23:25:00,
2013-06-26 19:30:00,81.7,66.9,29.81,WSW,240,0.0,0.0,61,0.00,,---,0.02,VWS V14.01,2013-06-26 23:30:00,
2013-06-26 19:35:00,81.5,66.8,29.81,West,272,1.0,3.0,61,0.00,,---,0.02,VWS V14.01,2013-06-26 23:35:00,
2013-06-26 19:40:00,81.0,66.8,29.81,West,280,1.0,3.0,62,0.00,,---,0.02,VWS V14.01,2013-06-26 23:40:00,
2013-06-26 19:45:00,80.8,67.0,29.81,West,281,0.0,3.0,63,0.00,,---,0.02,VWS V14.01,2013-06-26 23:45:00,
2013-06-26 19:50:00,81.0,67.7,29.81,West,281,0.0,3.0,64,0.00,,---,0.02,VWS V14.01,2013-06-26 23:50:00,
2013-06-26 19:55:00,80.9,67.6,29.81,West,281,0.0,3.0,64,0.00,,---,0.02,VWS V14.01,2013-06-26 23:55:00,
2013-06-26 20:00:00,80.4,68.0,29.81,WSW,255,0.0,1.0,66,0.00,,---,0.02,VWS V14.01,2013-06-27 00:00:00,
2013-06-26 20:05:00,79.6,67.2,29.81,WSW,253,2.0,5.0,66,0.00,,---,0.02,VWS V14.01,2013-06-27 00:05:00,
2013-06-26 20:10:00,79.0,67.6,29.81,West,273,0.0,5.0,68,0.00,,---,0.02,VWS V14.01,2013-06-27 00:10:00,
2013-06-26 20:15:00,78.6,67.2,29.81,WSW,255,1.0,5.0,68,0.00,,---,0.02,VWS V14.01,2013-06-27 00:15:00,
2013-06-26 20:20:00,78.2,67.2,29.81,WSW,250,0.0,5.0,69,0.00,,---,0.02,VWS V14.01,2013-06-27 00:20:00,
2013-06-26 20:25:00,77.7,67.1,29.81,West,266,0.0,5.0,70,0.00,,---,0.02,VWS V14.01,2013-06-27 00:25:00,
2013-06-26 20:30:00,77.3,67.2,29.81,West,268,0.0,0.0,71,0.00,,---,0.02,VWS V14.01,2013-06-27 00:30:00,
2013-06-26 20:35:00,76.8,67.5,29.81,WNW,284,0.0,1.0,73,0.00,,---,0.02,VWS V14.01,2013-06-27 00:35:00,
2013-06-26 20:40:00,76.4,67.5,29.81,WNW,284,0.0,1.0,74,0.00,,---,0.02,VWS V14.01,2013-06-27 00:40:00,
2013-06-26 20:45:00,75.7,68.0,29.82,WNW,284,0.0,1.0,77,0.00,,---,0.02,VWS V14.01,2013-06-27 00:45:00,
2013-06-26 20:50:00,75.0,68.1,29.81,WNW,283,0.0,1.0,79,0.00,,---,0.02,VWS V14.01,2013-06-27 00:50:00,
2013-06-26 20:55:00,74.3,68.1,29.81,WNW,283,0.0,1.0,81,0.00,,---,0.02,VWS V14.01,2013-06-27 00:55:00,
2013-06-26 21:00:00,73.7,67.9,29.82,WSW,243,1.0,1.0,82,0.00,,---,0.02,VWS V14.01,2013-06-27 01:00:00,
2013-06-26 21:05:00,73.4,67.2,29.82,West,269,0.0,2.0,81,0.00,,---,0.02,VWS V14.01,2013-06-27 01:05:00,
2013-06-26 21:10:00,73.4,67.2,29.82,WNW,295,0.0,2.0,81,0.00,,---,0.02,VWS V14.01,2013-06-27 01:10:00,
2013-06-26 21:15:00,73.1,67.3,29.82,WNW,288,1.0,2.0,82,0.00,,---,0.02,VWS V14.01,2013-06-27 01:15:00,
2013-06-26 21:20:00,72.7,67.2,29.82,WNW,295,1.0,2.0,83,0.00,,---,0.02,VWS V14.01,2013-06-27 01:20:00,
2013-06-26 21:25:00,72.1,66.7,29.82,West,262,0.0,2.0,83,0.00,,---,0.02,VWS V14.01,2013-06-27 01:25:00,
2013-06-26 21:30:00,71.9,66.8,29.82,West,271,1.0,1.0,84,0.00,,---,0.02,VWS V14.01,2013-06-27 01:30:00,
2013-06-26 21:35:00,71.7,66.3,29.83,WNW,301,3.0,3.0,83,0.00,,---,0.02,VWS V14.01,2013-06-27 01:35:00,
2013-06-26 21:40:00,71.8,66.4,29.83,WNW,293,0.0,3.0,83,0.00,,---,0.02,VWS V14.01,2013-06-27 01:40:00,
2013-06-26 21:45:00,71.8,66.4,29.83,WNW,293,0.0,3.0,83,0.00,,---,0.02,VWS V14.01,2013-06-27 01:45:00,
2013-06-26 21:50:00,71.7,66.6,29.83,WNW,285,1.0,3.0,84,0.00,,---,0.02,VWS V14.01,2013-06-27 01:50:00,
2013-06-26 21:55:00,71.5,66.8,29.84,WNW,292,1.0,3.0,85,0.00,,---,0.02,VWS V14.01,2013-06-27 01:55:00,
2013-06-26 22:00:00,71.4,66.7,29.84,WNW,293,1.0,1.0,85,0.00,,---,0.02,VWS V14.01,2013-06-27 02:00:00,
2013-06-26 22:05:00,71.3,66.6,29.84,WNW,289,1.0,2.0,85,0.00,,---,0.02,VWS V14.01,2013-06-27 02:05:00,
2013-06-26 22:10:00,71.3,66.6,29.84,WNW,289,0.0,2.0,85,0.00,,---,0.02,VWS V14.01,2013-06-27 02:10:00,
2013-06-26 22:15:00,71.4,66.3,29.84,WNW,282,0.0,2.0,84,0.00,,---,0.02,VWS V14.01,2013-06-27 02:15:00,
2013-06-26 22:20:00,71.4,66.3,29.84,NW,316,1.0,2.0,84,0.00,,---,0.02,VWS V14.01,2013-06-27 02:20:00,
2013-06-26 22:25:00,71.2,65.8,29.84,NW,316,0.0,2.0,83,0.00,,---,0.02,VWS V14.01,2013-06-27 02:25:00,
2013-06-26 22:30:00,71.1,65.7,29.84,SSW,193,0.0,0.0,83,0.00,,---,0.02,VWS V14.01,2013-06-27 02:30:00,
2013-06-26 22:35:00,71.2,65.8,29.84,SW,231,0.0,1.0,83,0.00,,---,0.02,VWS V14.01,2013-06-27 02:35:00,
2013-06-26 22:40:00,71.2,65.4,29.84,SW,231,0.0,1.0,82,0.00,,---,0.02,VWS V14.01,2013-06-27 02:40:00,
2013-06-26 22:45:00,71.0,65.2,29.83,SW,231,0.0,1.0,82,0.00,,---,0.02,VWS V14.01,2013-06-27 02:45:00,
2013-06-26 22:50:00,70.9,65.5,29.83,SSW,207,0.0,1.0,83,0.00,,---,0.02,VWS V14.01,2013-06-27 02:50:00,
2013-06-26 22:55:00,70.9,65.5,29.83,SSW,207,0.0,1.0,83,0.00,,---,0.02,VWS V14.01,2013-06-27 02:55:00,
2013-06-26 23:00:00,70.8,65.0,29.83,NNW,335,2.0,2.0,82,0.00,,---,0.02,VWS V14.01,2013-06-27 03:00:00,
2013-06-26 23:05:00,69.4,65.4,29.83,NW,320,0.0,3.0,87,0.00,,---,0.02,VWS V14.01,2013-06-27 03:05:00,
2013-06-26 23:10:00,68.7,65.3,29.83,NW,319,0.0,3.0,89,0.00,,---,0.02,VWS V14.01,2013-06-27 03:10:00,
2013-06-26 23:15:00,68.3,65.3,29.83,WNW,287,0.0,3.0,90,0.00,,---,0.02,VWS V14.01,2013-06-27 03:15:00,
2013-06-26 23:20:00,68.0,65.3,29.83,WNW,287,0.0,3.0,91,0.00,,---,0.02,VWS V14.01,2013-06-27 03:20:00,
2013-06-26 23:25:00,67.9,65.5,29.83,WNW,287,1.0,3.0,92,0.00,,---,0.02,VWS V14.01,2013-06-27 03:25:00,
2013-06-26 23:30:00,67.9,65.5,29.82,WNW,287,0.0,0.0,92,0.00,,---,0.02,VWS V14.01,2013-06-27 03:30:00,
2013-06-26 23:35:00,67.7,65.3,29.82,WNW,287,0.0,0.0,92,0.00,,---,0.02,VWS V14.01,2013-06-27 03:35:00,
2013-06-26 23:40:00,67.3,65.2,29.82,WNW,287,0.0,0.0,93,0.00,,---,0.02,VWS V14.01,2013-06-27 03:40:00,
2013-06-26 23:45:00,67.2,65.4,29.82,NE,39,0.0,0.0,94,0.00,,---,0.02,VWS V14.01,2013-06-27 03:45:00,
2013-06-26 23:50:00,67.2,65.1,29.82,NE,34,0.0,0.0,93,0.00,,---,0.02,VWS V14.01,2013-06-27 03:50:00,
2013-06-26 23:55:00,67.1,65.0,29.82,North,354,0.0,0.0,93,0.00,,---,0.02,VWS V14.01,2013-06-27 03:55:00,